createdAt,value
2022-08-18T00:00:31.170Z,1005.74
2022-08-18T00:01:31.228Z,1005.72
2022-08-18T00:02:31.200Z,1005.77
2022-08-18T00:03:56.109Z,1005.74
2022-08-18T00:04:35.598Z,1005.84
2022-08-18T00:05:31.121Z,1005.84
2022-08-18T00:06:31.106Z,1005.78
2022-08-18T00:07:31.110Z,1005.84
2022-08-18T00:08:32.379Z,1005.87
2022-08-18T00:09:32.835Z,1005.83
2022-08-18T00:10:31.101Z,1005.86
2022-08-18T00:11:41.186Z,1005.86
2022-08-18T00:12:31.039Z,1005.84
2022-08-18T00:13:31.030Z,1005.84
2022-08-18T00:14:31.034Z,1005.80
2022-08-18T00:15:31.032Z,1005.84
2022-08-18T00:16:30.996Z,1005.86
2022-08-18T00:17:30.988Z,1005.84
2022-08-18T00:18:30.977Z,1005.82
2022-08-18T00:19:46.257Z,1005.84
2022-08-18T00:20:31.948Z,1005.86
2022-08-18T00:21:30.942Z,1005.81
2022-08-18T00:22:30.947Z,1005.76
2022-08-18T00:23:30.919Z,1005.85
2022-08-18T00:24:30.907Z,1005.91
2022-08-18T00:25:30.947Z,1005.84
2022-08-18T00:26:34.858Z,1005.98
2022-08-18T00:27:31.879Z,1005.86
2022-08-18T00:28:30.862Z,1005.97
2022-08-18T00:29:30.854Z,1005.98
2022-08-18T00:30:30.861Z,1005.96
2022-08-18T00:31:30.831Z,1006.02
2022-08-18T00:32:30.819Z,1006.01
2022-08-18T00:33:30.867Z,1006.01
2022-08-18T00:34:30.821Z,1005.99
2022-08-18T00:35:30.803Z,1006.03
2022-08-18T00:36:30.814Z,1006.08
2022-08-18T00:37:30.768Z,1006.11
2022-08-18T00:38:30.755Z,1006.16
2022-08-18T00:39:34.306Z,1006.07
2022-08-18T00:40:34.483Z,1006.19
2022-08-18T00:41:31.734Z,1006.10
2022-08-18T00:42:31.333Z,1006.14
2022-08-18T00:43:30.699Z,1006.19
2022-08-18T00:44:30.712Z,1006.20
2022-08-18T00:45:30.678Z,1006.14
2022-08-18T00:46:30.680Z,1006.18
2022-08-18T00:47:37.062Z,1006.15
2022-08-18T00:48:31.642Z,1006.18
2022-08-18T00:49:30.630Z,1006.10
2022-08-18T00:50:30.653Z,1006.24
2022-08-18T00:51:30.626Z,1006.18
2022-08-18T00:52:30.601Z,1006.20
2022-08-18T00:53:30.590Z,1006.20
2022-08-18T00:54:30.584Z,1006.18
2022-08-18T00:55:30.567Z,1006.24
2022-08-18T00:56:30.613Z,1006.18
2022-08-18T00:57:30.542Z,1006.19
2022-08-18T00:58:30.535Z,1006.19
2022-08-18T00:59:30.522Z,1006.17
2022-08-18T01:00:30.653Z,1006.20
2022-08-18T01:01:30.625Z,1006.16
2022-08-18T01:02:30.509Z,1006.18
2022-08-18T01:03:30.508Z,1006.17
2022-08-18T01:04:30.497Z,1006.16
2022-08-18T01:05:30.485Z,1006.16
2022-08-18T01:06:30.442Z,1006.12
2022-08-18T01:07:30.463Z,1006.09
2022-08-18T01:08:30.422Z,1006.06
2022-08-18T01:09:30.412Z,1006.01
2022-08-18T01:10:30.419Z,1006.04
2022-08-18T01:11:30.395Z,1006.05
2022-08-18T01:12:45.353Z,1006.02
2022-08-18T01:13:31.389Z,1006.01
2022-08-18T01:14:30.360Z,1006.00
2022-08-18T01:15:30.789Z,1005.98
2022-08-18T01:16:30.368Z,1005.99
2022-08-18T01:17:30.320Z,1006.03
2022-08-18T01:18:30.338Z,1006.04
2022-08-18T01:19:30.319Z,1005.97
2022-08-18T01:20:30.290Z,1006.00
2022-08-18T01:21:30.278Z,1005.98
2022-08-18T01:22:30.289Z,1005.93
2022-08-18T01:23:30.279Z,1005.99
2022-08-18T01:24:30.247Z,1005.93
2022-08-18T01:25:30.240Z,1005.97
2022-08-18T01:26:30.224Z,1005.94
2022-08-18T01:27:30.234Z,1005.98
2022-08-18T01:28:30.213Z,1005.94
2022-08-18T01:29:30.186Z,1005.93
2022-08-18T01:30:30.180Z,1005.96
2022-08-18T01:31:30.168Z,1005.95
2022-08-18T01:32:30.159Z,1005.92
2022-08-18T01:33:30.439Z,1005.93
2022-08-18T01:34:30.136Z,1005.91
2022-08-18T01:35:30.150Z,1005.93
2022-08-18T01:36:31.114Z,1005.90
2022-08-18T01:37:30.100Z,1005.85
2022-08-18T01:38:30.134Z,1005.81
2022-08-18T01:41:17.648Z,1005.85
2022-08-18T01:41:21.871Z,1005.81
2022-08-18T01:41:31.487Z,1005.84
2022-08-18T01:42:30.069Z,1005.83
2022-08-18T01:43:30.048Z,1005.81
2022-08-18T01:44:30.026Z,1005.84
2022-08-18T01:45:30.014Z,1005.81
2022-08-18T01:46:30.002Z,1005.80
2022-08-18T01:47:29.996Z,1005.81
2022-08-18T01:48:30.993Z,1005.82
2022-08-18T01:49:29.969Z,1005.70
2022-08-18T01:50:29.962Z,1005.74
2022-08-18T01:51:39.287Z,1005.77
2022-08-18T01:52:30.959Z,1005.72
2022-08-18T01:53:29.945Z,1005.73
2022-08-18T01:54:29.930Z,1005.74
2022-08-18T01:55:29.904Z,1005.70
2022-08-18T01:56:29.918Z,1005.75
2022-08-18T01:57:29.879Z,1005.72
2022-08-18T01:58:31.688Z,1005.75
2022-08-18T01:59:29.880Z,1005.74
2022-08-18T02:00:29.851Z,1005.69
2022-08-18T02:01:36.252Z,1005.73
2022-08-18T02:02:30.870Z,1005.71
2022-08-18T02:03:29.815Z,1005.71
2022-08-18T02:04:37.607Z,1005.74
2022-08-18T02:05:30.818Z,1005.76
2022-08-18T02:06:33.527Z,1005.73
2022-08-18T02:07:36.240Z,1005.76
2022-08-18T02:08:30.761Z,1005.75
2022-08-18T02:09:29.765Z,1005.76
2022-08-18T02:10:29.740Z,1005.76
2022-08-18T02:11:29.724Z,1005.77
2022-08-18T02:12:29.719Z,1005.82
2022-08-18T02:13:29.715Z,1005.76
2022-08-18T02:14:31.089Z,1005.81
2022-08-18T02:15:29.705Z,1005.81
2022-08-18T02:16:29.674Z,1005.81
2022-08-18T02:17:29.661Z,1005.82
2022-08-18T02:18:47.145Z,1005.81
2022-08-18T02:19:30.653Z,1005.84
2022-08-18T02:20:29.640Z,1005.86
2022-08-18T02:21:29.617Z,1005.82
2022-08-18T02:22:29.607Z,1005.80
2022-08-18T02:23:29.591Z,1005.75
2022-08-18T02:24:29.589Z,1005.81
2022-08-18T02:25:29.594Z,1005.81
2022-08-18T02:26:29.574Z,1005.80
2022-08-18T02:27:29.560Z,1005.79
2022-08-18T02:28:30.740Z,1005.85
2022-08-18T02:29:29.528Z,1005.79
2022-08-18T02:30:29.548Z,1005.77
2022-08-18T02:31:29.515Z,1005.80
2022-08-18T02:32:29.589Z,1005.79
2022-08-18T02:33:29.484Z,1005.80
2022-08-18T02:34:29.479Z,1005.80
2022-08-18T02:35:29.477Z,1005.84
2022-08-18T02:36:29.463Z,1005.81
2022-08-18T02:37:29.438Z,1005.79
2022-08-18T02:38:29.434Z,1005.78
2022-08-18T02:39:29.445Z,1005.80
2022-08-18T02:40:29.426Z,1005.77
2022-08-18T02:41:30.093Z,1005.85
2022-08-18T02:42:29.389Z,1005.86
2022-08-18T02:43:29.377Z,1005.90
2022-08-18T02:44:29.374Z,1005.86
2022-08-18T02:45:29.357Z,1005.91
2022-08-18T02:46:31.147Z,1005.89
2022-08-18T02:47:33.526Z,1005.87
2022-08-18T02:48:29.325Z,1005.88
2022-08-18T02:49:29.307Z,1005.85
2022-08-18T02:50:29.298Z,1005.92
2022-08-18T02:51:29.303Z,1005.89
2022-08-18T02:52:29.291Z,1005.86
2022-08-18T02:53:29.266Z,1005.94
2022-08-18T02:54:29.257Z,1005.89
2022-08-18T02:55:29.256Z,1005.94
2022-08-18T02:56:40.677Z,1005.94
2022-08-18T02:57:30.220Z,1005.88
2022-08-18T02:58:33.205Z,1005.92
2022-08-18T02:59:31.672Z,1005.88
2022-08-18T03:00:29.204Z,1005.89
2022-08-18T03:01:29.274Z,1005.87
2022-08-18T03:02:29.170Z,1005.87
2022-08-18T03:03:29.152Z,1005.93
2022-08-18T03:04:30.413Z,1005.95
2022-08-18T03:05:29.145Z,1005.95
2022-08-18T03:06:29.124Z,1005.94
2022-08-18T03:07:29.111Z,1006.01
2022-08-18T03:08:29.102Z,1006.10
2022-08-18T03:09:29.200Z,1006.08
2022-08-18T03:10:32.565Z,1006.13
2022-08-18T03:11:29.072Z,1006.09
2022-08-18T03:12:29.058Z,1006.01
2022-08-18T03:13:29.046Z,1006.10
2022-08-18T03:14:29.133Z,1006.02
2022-08-18T03:15:29.023Z,1006.09
2022-08-18T03:16:29.014Z,1006.11
2022-08-18T03:17:28.996Z,1006.09
2022-08-18T03:18:28.997Z,1006.11
2022-08-18T03:19:29.251Z,1006.08
2022-08-18T03:20:30.432Z,1006.06
2022-08-18T03:21:28.964Z,1006.07
2022-08-18T03:22:29.523Z,1006.08
2022-08-18T03:23:30.240Z,1006.03
2022-08-18T03:24:29.044Z,1005.98
2022-08-18T03:25:28.912Z,1006.01
2022-08-18T03:26:28.907Z,1005.98
2022-08-18T03:27:28.889Z,1005.99
2022-08-18T03:28:28.881Z,1006.00
2022-08-18T03:29:32.451Z,1005.94
2022-08-18T03:30:28.863Z,1005.93
2022-08-18T03:31:28.879Z,1005.98
2022-08-18T03:32:28.850Z,1005.96
2022-08-18T03:33:28.829Z,1005.96
2022-08-18T03:34:28.896Z,1005.92
2022-08-18T03:35:28.802Z,1005.86
2022-08-18T03:36:28.829Z,1005.89
2022-08-18T03:37:28.818Z,1005.92
2022-08-18T03:38:28.771Z,1005.82
2022-08-18T03:39:28.859Z,1005.83
2022-08-18T03:40:28.755Z,1005.82
2022-08-18T03:41:57.625Z,1005.85
2022-08-18T03:42:29.726Z,1005.82
2022-08-18T03:43:51.103Z,1005.91
2022-08-18T03:44:29.727Z,1005.84
2022-08-18T03:45:28.702Z,1005.84
2022-08-18T03:46:28.685Z,1005.91
2022-08-18T03:47:28.680Z,1005.85
2022-08-18T03:48:28.662Z,1005.94
2022-08-18T03:49:28.702Z,1005.95
2022-08-18T03:50:28.642Z,1005.98
2022-08-18T03:51:28.631Z,1006.02
2022-08-18T03:52:28.631Z,1005.98
2022-08-18T03:53:28.615Z,1006.07
2022-08-18T03:54:28.614Z,1006.06
2022-08-18T03:55:28.585Z,1006.04
2022-08-18T03:56:28.579Z,1005.98
2022-08-18T03:57:28.558Z,1006.06
2022-08-18T03:58:28.561Z,1005.97
2022-08-18T03:59:28.554Z,1005.99
2022-08-18T04:00:28.525Z,1005.97
2022-08-18T04:01:28.650Z,1005.99
2022-08-18T04:02:28.519Z,1005.99
2022-08-18T04:03:28.505Z,1006.00
2022-08-18T04:04:28.638Z,1006.04
2022-08-18T04:05:28.494Z,1006.03
2022-08-18T04:06:29.854Z,1006.06
2022-08-18T04:07:28.455Z,1006.09
2022-08-18T04:08:28.444Z,1006.06
2022-08-18T04:09:28.487Z,1006.03
2022-08-18T04:10:28.420Z,1006.09
2022-08-18T04:11:28.418Z,1006.06
2022-08-18T04:12:28.395Z,1006.06
2022-08-18T04:13:28.380Z,1006.01
2022-08-18T04:14:28.384Z,1006.01
2022-08-18T04:15:28.358Z,1006.02
2022-08-18T04:16:28.361Z,1006.03
2022-08-18T04:17:28.343Z,1006.04
2022-08-18T04:18:28.338Z,1005.97
2022-08-18T04:19:28.532Z,1005.93
2022-08-18T04:20:28.315Z,1005.94
2022-08-18T04:21:28.344Z,1005.95
2022-08-18T04:22:28.292Z,1005.91
2022-08-18T04:23:28.282Z,1005.93
2022-08-18T04:24:29.742Z,1005.88
2022-08-18T04:25:32.576Z,1005.94
2022-08-18T04:26:28.253Z,1005.93
2022-08-18T04:27:28.235Z,1005.94
2022-08-18T04:28:28.237Z,1006.01
2022-08-18T04:29:28.219Z,1006.01
2022-08-18T04:30:28.205Z,1006.01
2022-08-18T04:31:28.193Z,1006.00
2022-08-18T04:32:29.864Z,1006.07
2022-08-18T04:33:28.170Z,1006.07
2022-08-18T04:34:28.172Z,1006.10
2022-08-18T04:35:28.158Z,1006.08
2022-08-18T04:36:28.141Z,1006.10
2022-08-18T04:37:28.140Z,1006.08
2022-08-18T04:38:28.120Z,1006.08
2022-08-18T04:39:28.175Z,1006.08
2022-08-18T04:40:28.173Z,1006.09
2022-08-18T04:41:28.081Z,1006.16
2022-08-18T04:42:28.071Z,1006.16
2022-08-18T04:43:28.058Z,1006.19
2022-08-18T04:44:28.070Z,1006.17
2022-08-18T04:45:28.044Z,1006.21
2022-08-18T04:46:28.036Z,1006.18
2022-08-18T04:47:28.012Z,1006.21
2022-08-18T04:48:28.012Z,1006.18
2022-08-18T04:49:27.986Z,1006.22
2022-08-18T04:50:27.990Z,1006.21
2022-08-18T04:52:34.278Z,1006.21
2022-08-18T04:52:40.404Z,1006.18
2022-08-18T04:53:28.947Z,1006.24
2022-08-18T04:54:27.940Z,1006.25
2022-08-18T04:55:27.919Z,1006.22
2022-08-18T04:56:27.930Z,1006.25
2022-08-18T04:57:27.897Z,1006.30
2022-08-18T04:58:27.899Z,1006.29
2022-08-18T04:59:27.879Z,1006.25
2022-08-18T05:00:27.870Z,1006.28
2022-08-18T05:01:27.937Z,1006.26
2022-08-18T05:02:27.852Z,1006.26
2022-08-18T05:03:27.830Z,1006.27
2022-08-18T05:04:27.823Z,1006.31
2022-08-18T05:05:27.808Z,1006.25
2022-08-18T05:06:27.806Z,1006.33
2022-08-18T05:07:27.887Z,1006.30
2022-08-18T05:08:27.786Z,1006.30
2022-08-18T05:09:28.465Z,1006.32
2022-08-18T05:10:27.756Z,1006.26
2022-08-18T05:11:27.740Z,1006.28
2022-08-18T05:12:27.751Z,1006.25
2022-08-18T05:13:27.717Z,1006.25
2022-08-18T05:14:27.712Z,1006.28
2022-08-18T05:15:27.698Z,1006.32
2022-08-18T05:16:28.030Z,1006.32
2022-08-18T05:17:27.689Z,1006.30
2022-08-18T05:18:27.676Z,1006.34
2022-08-18T05:19:27.688Z,1006.31
2022-08-18T05:20:27.648Z,1006.38
2022-08-18T05:21:27.650Z,1006.37
2022-08-18T05:22:30.515Z,1006.34
2022-08-18T05:23:27.620Z,1006.43
2022-08-18T05:24:32.190Z,1006.44
2022-08-18T05:25:28.592Z,1006.42
2022-08-18T05:26:27.582Z,1006.44
2022-08-18T05:27:27.604Z,1006.48
2022-08-18T05:28:27.558Z,1006.48
2022-08-18T05:29:27.546Z,1006.41
2022-08-18T05:30:27.547Z,1006.46
2022-08-18T05:31:27.522Z,1006.43
2022-08-18T05:32:41.171Z,1006.39
2022-08-18T05:33:28.523Z,1006.39
2022-08-18T05:34:27.489Z,1006.44
2022-08-18T05:35:27.488Z,1006.36
2022-08-18T05:36:27.473Z,1006.40
2022-08-18T05:37:27.459Z,1006.42
2022-08-18T05:38:27.473Z,1006.35
2022-08-18T05:39:27.476Z,1006.34
2022-08-18T05:40:27.421Z,1006.37
2022-08-18T05:41:27.414Z,1006.35
2022-08-18T05:42:27.401Z,1006.33
2022-08-18T05:43:27.403Z,1006.37
2022-08-18T05:44:27.377Z,1006.33
2022-08-18T05:45:27.376Z,1006.36
2022-08-18T05:46:27.357Z,1006.37
2022-08-18T05:47:27.350Z,1006.35
2022-08-18T05:48:27.369Z,1006.39
2022-08-18T05:49:27.325Z,1006.37
2022-08-18T05:50:27.310Z,1006.38
2022-08-18T05:51:27.305Z,1006.37
2022-08-18T05:52:27.291Z,1006.36
2022-08-18T05:53:27.297Z,1006.36
2022-08-18T05:54:27.276Z,1006.39
2022-08-18T05:55:27.266Z,1006.40
2022-08-18T05:56:27.244Z,1006.37
2022-08-18T05:57:27.240Z,1006.37
2022-08-18T05:58:33.539Z,1006.36
2022-08-18T05:59:28.222Z,1006.39
2022-08-18T06:00:27.218Z,1006.38
2022-08-18T06:01:27.214Z,1006.37
2022-08-18T06:02:27.186Z,1006.39
2022-08-18T06:03:27.275Z,1006.36
2022-08-18T06:04:27.172Z,1006.36
2022-08-18T06:05:27.149Z,1006.41
2022-08-18T06:06:27.141Z,1006.29
2022-08-18T06:07:27.129Z,1006.36
2022-08-18T06:08:27.126Z,1006.33
2022-08-18T06:09:27.129Z,1006.33
2022-08-18T06:10:27.104Z,1006.40
2022-08-18T06:11:27.101Z,1006.36
2022-08-18T06:12:27.086Z,1006.36
2022-08-18T06:13:27.066Z,1006.41
2022-08-18T06:14:27.067Z,1006.47
2022-08-18T06:15:27.038Z,1006.48
2022-08-18T06:16:27.042Z,1006.48
2022-08-18T06:17:27.022Z,1006.43
2022-08-18T06:18:27.020Z,1006.50
2022-08-18T06:19:27.002Z,1006.50
2022-08-18T06:20:27.056Z,1006.45
2022-08-18T06:21:26.975Z,1006.48
2022-08-18T06:22:27.067Z,1006.48
2022-08-18T06:23:26.954Z,1006.48
2022-08-18T06:24:26.942Z,1006.46
2022-08-18T06:25:26.947Z,1006.50
2022-08-18T06:26:26.921Z,1006.51
2022-08-18T06:27:26.923Z,1006.54
2022-08-18T06:28:26.898Z,1006.58
2022-08-18T06:29:26.897Z,1006.55
2022-08-18T06:30:26.977Z,1006.65
2022-08-18T06:31:29.429Z,1006.61
2022-08-18T06:32:26.857Z,1006.60
2022-08-18T06:33:26.845Z,1006.64
2022-08-18T06:34:26.829Z,1006.70
2022-08-18T06:35:26.924Z,1006.67
2022-08-18T06:36:26.808Z,1006.69
2022-08-18T06:37:26.802Z,1006.72
2022-08-18T06:38:26.790Z,1006.71
2022-08-18T06:39:26.978Z,1006.74
2022-08-18T06:40:26.821Z,1006.74
2022-08-18T06:41:41.888Z,1006.78
2022-08-18T06:42:27.746Z,1006.78
2022-08-18T06:43:26.733Z,1006.77
2022-08-18T06:44:26.726Z,1006.83
2022-08-18T06:45:26.726Z,1006.79
2022-08-18T06:46:26.762Z,1006.81
2022-08-18T06:47:26.696Z,1006.84
2022-08-18T06:48:26.678Z,1006.88
2022-08-18T06:49:26.676Z,1006.93
2022-08-18T06:50:26.695Z,1006.86
2022-08-18T06:51:26.654Z,1006.94
2022-08-18T06:52:26.643Z,1006.88
2022-08-18T06:53:27.381Z,1006.90
2022-08-18T06:54:26.607Z,1006.96
2022-08-18T06:55:26.610Z,1007.00
2022-08-18T06:56:27.014Z,1006.97
2022-08-18T06:57:26.591Z,1007.01
2022-08-18T06:58:26.569Z,1007.00
2022-08-18T06:59:26.556Z,1007.02
2022-08-18T07:00:26.546Z,1007.00
2022-08-18T07:01:26.604Z,1006.98
2022-08-18T07:02:26.560Z,1007.01
2022-08-18T07:03:26.513Z,1007.01
2022-08-18T07:04:26.502Z,1007.06
2022-08-18T07:05:26.491Z,1007.04
2022-08-18T07:06:26.487Z,1007.06
2022-08-18T07:07:26.468Z,1007.07
2022-08-18T07:08:27.461Z,1007.12
2022-08-18T07:09:26.443Z,1007.09
2022-08-18T07:10:26.431Z,1007.06
2022-08-18T07:11:26.478Z,1007.10
2022-08-18T07:12:32.184Z,1007.09
2022-08-18T07:13:27.413Z,1007.09
2022-08-18T07:14:26.389Z,1007.13
2022-08-18T07:15:26.381Z,1007.11
2022-08-18T07:16:47.092Z,1007.09
2022-08-18T07:17:42.350Z,1007.16
2022-08-18T07:18:27.365Z,1007.16
2022-08-18T07:19:26.338Z,1007.16
2022-08-18T07:20:26.324Z,1007.19
2022-08-18T07:21:26.340Z,1007.17
2022-08-18T07:22:39.083Z,1007.18
2022-08-18T07:23:27.293Z,1007.14
2022-08-18T07:24:26.283Z,1007.18
2022-08-18T07:25:26.272Z,1007.17
2022-08-18T07:26:26.268Z,1007.23
2022-08-18T07:27:26.291Z,1007.22
2022-08-18T07:28:26.234Z,1007.24
2022-08-18T07:29:26.225Z,1007.27
2022-08-18T07:30:26.216Z,1007.31
2022-08-18T07:31:26.205Z,1007.30
2022-08-18T07:32:26.202Z,1007.32
2022-08-18T07:33:26.200Z,1007.32
2022-08-18T07:34:26.168Z,1007.36
2022-08-18T07:35:26.160Z,1007.32
2022-08-18T07:36:26.147Z,1007.28
2022-08-18T07:37:28.768Z,1007.34
2022-08-18T07:38:43.560Z,1007.27
2022-08-18T07:39:27.177Z,1007.28
2022-08-18T07:40:26.101Z,1007.27
2022-08-18T07:41:26.095Z,1007.35
2022-08-18T07:42:54.289Z,1007.28
2022-08-18T07:43:27.084Z,1007.26
2022-08-18T07:44:26.058Z,1007.25
2022-08-18T07:45:26.069Z,1007.22
2022-08-18T07:46:26.036Z,1007.26
2022-08-18T07:47:26.029Z,1007.25
2022-08-18T07:48:41.561Z,1007.17
2022-08-18T07:49:27.008Z,1007.27
2022-08-18T07:50:55.148Z,1007.26
2022-08-18T07:51:36.963Z,1007.24
2022-08-18T07:52:36.392Z,1007.25
2022-08-18T07:53:26.983Z,1007.31
2022-08-18T07:54:48.315Z,1007.25
2022-08-18T07:55:26.941Z,1007.33
2022-08-18T07:56:25.937Z,1007.27
2022-08-18T07:57:25.919Z,1007.26
2022-08-18T07:58:25.938Z,1007.26
2022-08-18T07:59:25.923Z,1007.29
2022-08-18T08:00:55.259Z,1007.31
2022-08-18T08:01:26.927Z,1007.34
2022-08-18T08:02:25.860Z,1007.25
2022-08-18T08:03:25.871Z,1007.31
2022-08-18T08:04:26.563Z,1007.31
2022-08-18T08:05:25.840Z,1007.27
2022-08-18T08:06:25.840Z,1007.31
2022-08-18T08:07:25.958Z,1007.34
2022-08-18T08:08:25.896Z,1007.35
2022-08-18T08:09:25.799Z,1007.30
2022-08-18T08:10:25.789Z,1007.26
2022-08-18T08:11:25.763Z,1007.26
2022-08-18T08:12:25.775Z,1007.27
2022-08-18T08:13:51.309Z,1007.23
2022-08-18T08:14:26.990Z,1007.23
2022-08-18T08:15:26.942Z,1007.27
2022-08-18T08:16:25.709Z,1007.23
2022-08-18T08:17:25.722Z,1007.27
2022-08-18T08:18:25.686Z,1007.27
2022-08-18T08:19:49.249Z,1007.21
2022-08-18T08:20:32.677Z,1007.20
2022-08-18T08:21:26.657Z,1007.21
2022-08-18T08:22:25.645Z,1007.22
2022-08-18T08:23:25.639Z,1007.25
2022-08-18T08:24:25.621Z,1007.26
2022-08-18T08:25:45.861Z,1007.22
2022-08-18T08:26:26.595Z,1007.22
2022-08-18T08:27:25.595Z,1007.26
2022-08-18T08:28:25.573Z,1007.22
2022-08-18T08:29:25.566Z,1007.25
2022-08-18T08:30:25.567Z,1007.27
2022-08-18T08:31:36.849Z,1007.30
2022-08-18T08:32:26.527Z,1007.28
2022-08-18T08:33:25.529Z,1007.29
2022-08-18T08:34:25.507Z,1007.24
2022-08-18T08:35:48.660Z,1007.31
2022-08-18T08:36:26.496Z,1007.33
2022-08-18T08:37:25.477Z,1007.33
2022-08-18T08:38:42.682Z,1007.41
2022-08-18T08:39:26.463Z,1007.38
2022-08-18T08:40:25.449Z,1007.34
2022-08-18T08:41:25.444Z,1007.32
2022-08-18T08:42:30.495Z,1007.35
2022-08-18T08:43:26.409Z,1007.38
2022-08-18T08:44:25.437Z,1007.35
2022-08-18T08:45:25.390Z,1007.38
2022-08-18T08:46:25.393Z,1007.36
2022-08-18T08:47:25.366Z,1007.37
2022-08-18T08:48:25.356Z,1007.41
2022-08-18T08:49:25.353Z,1007.40
2022-08-18T08:50:25.330Z,1007.45
2022-08-18T08:51:25.338Z,1007.42
2022-08-18T08:52:25.307Z,1007.47
2022-08-18T08:53:25.300Z,1007.38
2022-08-18T08:54:25.287Z,1007.51
2022-08-18T08:55:25.287Z,1007.39
2022-08-18T08:56:25.280Z,1007.46
2022-08-18T08:57:25.258Z,1007.45
2022-08-18T08:58:25.244Z,1007.46
2022-08-18T08:59:25.238Z,1007.47
2022-08-18T09:00:25.220Z,1007.41
2022-08-18T09:01:25.289Z,1007.43
2022-08-18T09:02:46.820Z,1007.45
2022-08-18T09:03:30.363Z,1007.44
2022-08-18T09:04:25.176Z,1007.45
2022-08-18T09:05:25.174Z,1007.45
2022-08-18T09:06:25.191Z,1007.42
2022-08-18T09:07:25.159Z,1007.30
2022-08-18T09:08:25.133Z,1007.42
2022-08-18T09:09:25.125Z,1007.35
2022-08-18T09:10:25.111Z,1007.42
2022-08-18T09:11:25.104Z,1007.41
2022-08-18T09:12:25.150Z,1007.42
2022-08-18T09:13:29.049Z,1007.42
2022-08-18T09:14:25.067Z,1007.45
2022-08-18T09:15:25.060Z,1007.41
2022-08-18T09:16:27.623Z,1007.47
2022-08-18T09:17:25.068Z,1007.45
2022-08-18T09:18:26.028Z,1007.47
2022-08-18T09:19:25.017Z,1007.48
2022-08-18T09:20:24.997Z,1007.53
2022-08-18T09:21:24.999Z,1007.49
2022-08-18T09:22:24.987Z,1007.42
2022-08-18T09:23:24.980Z,1007.49
2022-08-18T09:24:24.955Z,1007.51
2022-08-18T09:25:24.994Z,1007.45
2022-08-18T09:26:24.945Z,1007.41
2022-08-18T09:27:24.948Z,1007.51
2022-08-18T09:28:24.911Z,1007.49
2022-08-18T09:29:24.926Z,1007.56
2022-08-18T09:30:24.888Z,1007.50
2022-08-18T09:31:24.880Z,1007.46
2022-08-18T09:32:24.884Z,1007.53
2022-08-18T09:33:24.885Z,1007.53
2022-08-18T09:34:24.855Z,1007.49
2022-08-18T09:35:24.832Z,1007.51
2022-08-18T09:36:26.014Z,1007.53
2022-08-18T09:37:24.812Z,1007.50
2022-08-18T09:38:26.029Z,1007.48
2022-08-18T09:39:24.799Z,1007.48
2022-08-18T09:40:44.499Z,1007.52
2022-08-18T09:41:25.772Z,1007.55
2022-08-18T09:42:24.761Z,1007.52
2022-08-18T09:43:25.759Z,1007.59
2022-08-18T09:44:27.029Z,1007.58
2022-08-18T09:45:24.723Z,1007.54
2022-08-18T09:46:25.714Z,1007.59
2022-08-18T09:47:27.536Z,1007.61
2022-08-18T09:48:28.411Z,1007.61
2022-08-18T09:49:24.683Z,1007.61
2022-08-18T09:50:26.853Z,1007.55
2022-08-18T09:51:24.704Z,1007.62
2022-08-18T09:52:25.373Z,1007.58
2022-08-18T09:53:24.649Z,1007.62
2022-08-18T09:54:25.068Z,1007.59
2022-08-18T09:55:24.612Z,1007.57
2022-08-18T09:56:28.726Z,1007.59
2022-08-18T09:57:24.624Z,1007.66
2022-08-18T09:58:25.813Z,1007.63
2022-08-18T09:59:24.571Z,1007.58
2022-08-18T10:00:26.631Z,1007.61
2022-08-18T10:01:24.635Z,1007.61
2022-08-18T10:02:28.335Z,1007.62
2022-08-18T10:03:25.737Z,1007.60
2022-08-18T10:04:28.966Z,1007.62
2022-08-18T10:05:24.506Z,1007.59
2022-08-18T10:06:27.453Z,1007.63
2022-08-18T10:07:24.491Z,1007.57
2022-08-18T10:08:24.477Z,1007.59
2022-08-18T10:09:27.229Z,1007.62
2022-08-18T10:11:01.538Z,1007.66
2022-08-18T10:11:25.458Z,1007.63
2022-08-18T10:12:27.495Z,1007.65
2022-08-18T10:14:25.459Z,1007.60
2022-08-18T10:16:25.381Z,1007.58
2022-08-18T10:17:24.820Z,1007.57
2022-08-18T10:18:24.362Z,1007.52
2022-08-18T10:20:26.679Z,1007.60
2022-08-18T10:21:24.595Z,1007.55
2022-08-18T10:22:35.373Z,1007.51
2022-08-18T10:23:25.307Z,1007.60
2022-08-18T10:24:39.649Z,1007.59
2022-08-18T10:25:25.288Z,1007.60
2022-08-18T10:26:24.899Z,1007.62
2022-08-18T10:27:24.302Z,1007.69
2022-08-18T10:28:24.277Z,1007.62
2022-08-18T10:29:24.257Z,1007.58
2022-08-18T10:30:24.259Z,1007.53
2022-08-18T10:31:27.407Z,1007.54
2022-08-18T10:32:24.217Z,1007.52
2022-08-18T10:33:24.238Z,1007.52
2022-08-18T10:34:24.676Z,1007.47
2022-08-18T10:35:29.135Z,1007.50
2022-08-18T10:36:24.162Z,1007.50
2022-08-18T10:37:26.242Z,1007.60
2022-08-18T10:38:24.149Z,1007.53
2022-08-18T10:39:24.127Z,1007.52
2022-08-18T10:40:26.551Z,1007.57
2022-08-18T10:41:24.103Z,1007.52
2022-08-18T10:42:24.117Z,1007.42
2022-08-18T10:44:29.509Z,1007.50
2022-08-18T10:45:25.319Z,1007.47
2022-08-18T10:46:25.096Z,1007.43
2022-08-18T10:47:24.891Z,1007.43
2022-08-18T10:49:46.816Z,1007.40
2022-08-18T10:50:44.940Z,1007.39
2022-08-18T10:51:59.832Z,1007.41
2022-08-18T10:53:58.355Z,1007.45
2022-08-18T10:54:58.343Z,1007.48
2022-08-18T10:55:58.320Z,1007.40
2022-08-18T10:56:58.315Z,1007.40
2022-08-18T10:57:58.331Z,1007.49
2022-08-18T10:58:58.300Z,1007.44
2022-08-18T10:59:58.279Z,1007.48
2022-08-18T11:00:58.270Z,1007.50
2022-08-18T11:01:58.257Z,1007.44
2022-08-18T11:03:59.502Z,1007.46
2022-08-18T11:04:59.961Z,1007.54
2022-08-18T11:05:58.210Z,1007.52
2022-08-18T11:06:58.202Z,1007.60
2022-08-18T11:07:58.651Z,1007.64
2022-08-18T11:08:58.186Z,1007.55
2022-08-18T11:10:13.225Z,1007.49
2022-08-18T11:11:27.660Z,1007.53
2022-08-18T11:11:59.561Z,1007.49
2022-08-18T11:12:58.612Z,1007.53
2022-08-18T11:13:58.178Z,1007.54
2022-08-18T11:14:58.114Z,1007.59
2022-08-18T11:15:58.097Z,1007.57
2022-08-18T11:16:58.089Z,1007.54
2022-08-18T11:17:58.143Z,1007.54
2022-08-18T11:18:58.068Z,1007.50
2022-08-18T11:19:58.066Z,1007.48
2022-08-18T11:20:58.044Z,1007.48
2022-08-18T11:21:58.040Z,1007.50
2022-08-18T11:22:58.021Z,1007.45
2022-08-18T11:23:58.038Z,1007.48
2022-08-18T11:24:58.010Z,1007.44
2022-08-18T11:25:57.988Z,1007.43
2022-08-18T11:26:58.623Z,1007.50
2022-08-18T11:27:57.967Z,1007.49
2022-08-18T11:28:57.953Z,1007.45
2022-08-18T11:29:57.962Z,1007.45
2022-08-18T11:30:57.931Z,1007.42
2022-08-18T11:31:59.614Z,1007.43
2022-08-18T11:32:58.239Z,1007.42
2022-08-18T11:33:57.915Z,1007.39
2022-08-18T11:34:57.890Z,1007.42
2022-08-18T11:35:58.084Z,1007.42
2022-08-18T11:36:57.872Z,1007.37
2022-08-18T11:37:57.853Z,1007.41
2022-08-18T11:38:57.844Z,1007.44
2022-08-18T11:39:58.167Z,1007.38
2022-08-18T11:41:13.761Z,1007.41
2022-08-18T11:41:58.870Z,1007.39
2022-08-18T11:42:57.797Z,1007.32
2022-08-18T11:43:57.812Z,1007.32
2022-08-18T11:44:57.781Z,1007.34
2022-08-18T11:45:57.805Z,1007.29
2022-08-18T11:46:57.801Z,1007.30
2022-08-18T11:47:57.743Z,1007.33
2022-08-18T11:48:57.747Z,1007.30
2022-08-18T11:49:57.735Z,1007.27
2022-08-18T11:50:57.727Z,1007.32
2022-08-18T11:51:57.699Z,1007.25
2022-08-18T11:52:58.702Z,1007.28
2022-08-18T11:53:59.596Z,1007.22
2022-08-18T11:54:57.678Z,1007.19
2022-08-18T11:55:57.658Z,1007.24
2022-08-18T11:56:57.651Z,1007.31
2022-08-18T11:57:58.685Z,1007.28
2022-08-18T11:58:57.628Z,1007.29
2022-08-18T12:00:00.368Z,1007.30
2022-08-18T12:01:01.517Z,1007.30
2022-08-18T12:01:58.581Z,1007.31
2022-08-18T12:02:57.572Z,1007.29
2022-08-18T12:03:57.557Z,1007.30
2022-08-18T12:04:57.587Z,1007.22
2022-08-18T12:05:57.540Z,1007.24
2022-08-18T12:06:57.529Z,1007.26
2022-08-18T12:07:58.149Z,1007.27
2022-08-18T12:08:59.023Z,1007.31
2022-08-18T12:10:17.045Z,1007.28
2022-08-18T12:10:58.501Z,1007.21
2022-08-18T12:11:57.469Z,1007.22
2022-08-18T12:12:57.467Z,1007.23